地図

経路データ

SID SEASON NUMBER BASIN SUBBASIN NAME ISO_TIME NATURE LAT LON WMO_WIND WMO_PRES WMO_AGENCY TRACK_TYPE DIST2LAND LANDFALL IFLAG USA_AGENCY USA_ATCF_ID USA_LAT USA_LON USA_RECORD USA_STATUS USA_WIND USA_PRES USA_SSHS USA_R34_NE USA_R34_SE USA_R34_SW USA_R34_NW USA_R50_NE USA_R50_SE USA_R50_SW USA_R50_NW USA_R64_NE USA_R64_SE USA_R64_SW USA_R64_NW USA_POCI USA_ROCI USA_RMW USA_EYE TOKYO_LAT TOKYO_LON TOKYO_GRADE TOKYO_WIND TOKYO_PRES TOKYO_R50_DIR TOKYO_R50_LONG TOKYO_R50_SHORT TOKYO_R30_DIR TOKYO_R30_LONG TOKYO_R30_SHORT TOKYO_LAND CMA_LAT CMA_LON CMA_CAT CMA_WIND CMA_PRES HKO_LAT HKO_LON HKO_CAT HKO_WIND HKO_PRES NEWDELHI_LAT NEWDELHI_LON NEWDELHI_GRADE NEWDELHI_WIND NEWDELHI_PRES NEWDELHI_CI NEWDELHI_DP NEWDELHI_POCI REUNION_LAT REUNION_LON REUNION_TYPE REUNION_WIND REUNION_PRES REUNION_TNUM REUNION_CI REUNION_RMW REUNION_R34_NE REUNION_R34_SE REUNION_R34_SW REUNION_R34_NW REUNION_R50_NE REUNION_R50_SE REUNION_R50_SW REUNION_R50_NW REUNION_R64_NE REUNION_R64_SE REUNION_R64_SW REUNION_R64_NW BOM_LAT BOM_LON BOM_TYPE BOM_WIND BOM_PRES BOM_TNUM BOM_CI BOM_RMW BOM_R34_NE BOM_R34_SE BOM_R34_SW BOM_R34_NW BOM_R50_NE BOM_R50_SE BOM_R50_SW BOM_R50_NW BOM_R64_NE BOM_R64_SE BOM_R64_SW BOM_R64_NW BOM_ROCI BOM_POCI BOM_EYE BOM_POS_METHOD BOM_PRES_METHOD NADI_LAT NADI_LON NADI_CAT NADI_WIND NADI_PRES WELLINGTON_LAT WELLINGTON_LON WELLINGTON_WIND WELLINGTON_PRES DS824_LAT DS824_LON DS824_STAGE DS824_WIND DS824_PRES TD9636_LAT TD9636_LON TD9636_STAGE TD9636_WIND TD9636_PRES TD9635_LAT TD9635_LON TD9635_WIND TD9635_PRES TD9635_ROCI NEUMANN_LAT NEUMANN_LON NEUMANN_CLASS NEUMANN_WIND NEUMANN_PRES MLC_LAT MLC_LON MLC_CLASS MLC_WIND MLC_PRES USA_GUST BOM_GUST BOM_GUST_PER REUNION_GUST REUNION_GUST_PER USA_SEAHGT USA_SEARAD_NE USA_SEARAD_SE USA_SEARAD_SW USA_SEARAD_NW STORM_SPEED STORM_DIR
1993162N10245 1993 32 EP MM ADRIAN 1993-06-11 06:00:00 TS 9.70000 -114.600 25 1011 hurdat_epa main 1497 1489 O_____________ hurdat_epa EP011993 9.70000 -114.600 TD 25 1011 -1 3 321
1993162N10245 1993 32 EP MM ADRIAN 1993-06-11 09:00:00 TS 9.82251 -114.700 main 1496 1488 P_____________ EP011993 9.82251 -114.700 TD 25 1010 -1 3 315
1993162N10245 1993 32 EP MM ADRIAN 1993-06-11 12:00:00 TS 9.90000 -114.800 25 1010 hurdat_epa main 1496 1496 O_____________ hurdat_epa EP011993 9.90000 -114.800 TD 25 1010 -1 2 293
1993162N10245 1993 32 EP MM ADRIAN 1993-06-11 15:00:00 TS 9.90750 -114.900 main 1504 1504 P_____________ EP011993 9.90750 -114.900 TD 27 1009 -1 2 270
1993162N10245 1993 32 EP MM ADRIAN 1993-06-11 18:00:00 TS 9.90000 -115.000 30 1009 hurdat_epa main 1511 1511 O_____________ hurdat_epa EP011993 9.90000 -115.000 TD 30 1009 -1 2 284
1993162N10245 1993 32 EP MM ADRIAN 1993-06-11 21:00:00 TS 9.95750 -115.107 main 1511 1511 P_____________ EP011993 9.95750 -115.107 TD 30 1008 -1 2 297
1993162N10245 1993 32 EP MM ADRIAN 1993-06-12 00:00:00 TS 10.0000 -115.200 30 1008 hurdat_epa main 1519 1519 O_____________ hurdat_epa EP011993 10.0000 -115.200 TD 30 1008 -1 1 273
1993162N10245 1993 32 EP MM ADRIAN 1993-06-12 03:00:00 TS 9.96500 -115.258 main 1526 1526 P_____________ EP011993 9.96499 -115.258 TD 32 1006 -1 1 223
1993162N10245 1993 32 EP MM ADRIAN 1993-06-12 06:00:00 TS 9.90000 -115.300 35 1005 hurdat_epa main 1535 1535 O_____________ hurdat_epa EP011993 9.90000 -115.300 TS 35 1005 0 2 217
1993162N10245 1993 32 EP MM ADRIAN 1993-06-12 09:00:00 TS 9.84250 -115.350 main 1550 1550 P_____________ EP011993 9.84250 -115.350 TS 35 1004 0 1 223
1993162N10245 1993 32 EP MM ADRIAN 1993-06-12 12:00:00 TS 9.80000 -115.400 35 1003 hurdat_epa main 1550 1550 O_____________ hurdat_epa EP011993 9.80000 -115.400 TS 35 1003 0 1 239
1993162N10245 1993 32 EP MM ADRIAN 1993-06-12 15:00:00 TS 9.78500 -115.450 main 1558 1558 P_____________ EP011993 9.78500 -115.450 TS 37 1002 0 1 270
1993162N10245 1993 32 EP MM ADRIAN 1993-06-12 18:00:00 TS 9.80000 -115.500 40 1002 hurdat_epa main 1558 1558 O_____________ hurdat_epa EP011993 9.80000 -115.500 TS 40 1002 0 1 301
1993162N10245 1993 32 EP MM ADRIAN 1993-06-12 21:00:00 TS 9.84250 -115.550 main 1565 1557 P_____________ EP011993 9.84250 -115.550 TS 40 1001 0 1 317
1993162N10245 1993 32 EP MM ADRIAN 1993-06-13 00:00:00 TS 9.90000 -115.600 40 1001 hurdat_epa main 1557 1557 O_____________ hurdat_epa EP011993 9.90000 -115.600 TS 40 1001 0 1 322
1993162N10245 1993 32 EP MM ADRIAN 1993-06-13 03:00:00 TS 9.94999 -115.643 main 1549 1549 P_____________ EP011993 9.94999 -115.643 TS 42 1001 0 1 317
1993162N10245 1993 32 EP MM ADRIAN 1993-06-13 06:00:00 TS 10.0000 -115.700 45 1001 hurdat_epa main 1557 1557 O_____________ hurdat_epa EP011993 10.0000 -115.700 TS 45 1001 0 2 308
1993162N10245 1993 32 EP MM ADRIAN 1993-06-13 09:00:00 TS 10.0650 -115.792 main 1557 1557 P_____________ EP011993 10.0650 -115.792 TS 45 1001 0 2 297
1993162N10245 1993 32 EP MM ADRIAN 1993-06-13 12:00:00 TS 10.1000 -115.900 45 1001 hurdat_epa main 1563 1563 O_____________ hurdat_epa EP011993 10.1000 -115.900 TS 45 1001 0 2 268
1993162N10245 1993 32 EP MM ADRIAN 1993-06-13 15:00:00 TS 10.0575 -115.985 main 1568 1568 P_____________ EP011993 10.0575 -115.985 TS 45 1000 0 2 243
1993162N10245 1993 32 EP MM ADRIAN 1993-06-13 18:00:00 TS 10.0000 -116.100 45 1000 hurdat_epa main 1582 1582 O_____________ hurdat_epa EP011993 10.0000 -116.100 TS 45 1000 0 3 256
1993162N10245 1993 32 EP MM ADRIAN 1993-06-13 21:00:00 TS 9.98501 -116.285 main 1591 1591 P_____________ EP011993 9.98501 -116.285 TS 45 1000 0 4 270
1993162N10245 1993 32 EP MM ADRIAN 1993-06-14 00:00:00 TS 10.0000 -116.500 45 1000 hurdat_epa main 1600 1600 O_____________ hurdat_epa EP011993 10.0000 -116.500 TS 45 1000 0 4 277
1993162N10245 1993 32 EP MM ADRIAN 1993-06-14 03:00:00 TS 10.0350 -116.700 main 1609 1604 P_____________ EP011993 10.0350 -116.700 TS 45 999 0 4 284
1993162N10245 1993 32 EP MM ADRIAN 1993-06-14 06:00:00 TS 10.1000 -116.900 45 999 hurdat_epa main 1609 1604 O_____________ hurdat_epa EP011993 10.1000 -116.900 TS 45 999 0 4 292
1993162N10245 1993 32 EP MM ADRIAN 1993-06-14 09:00:00 TS 10.1925 -117.100 main 1609 1604 P_____________ EP011993 10.1925 -117.100 TS 45 998 0 4 297
1993162N10245 1993 32 EP MM ADRIAN 1993-06-14 12:00:00 TS 10.3000 -117.300 45 998 hurdat_epa main 1609 1604 O_____________ hurdat_epa EP011993 10.3000 -117.300 TS 45 998 0 4 297
1993162N10245 1993 32 EP MM ADRIAN 1993-06-14 15:00:00 TS 10.3925 -117.493 main 1610 1605 P_____________ EP011993 10.3925 -117.493 TS 45 998 0 4 297
1993162N10245 1993 32 EP MM ADRIAN 1993-06-14 18:00:00 TS 10.5000 -117.700 45 998 hurdat_epa main 1610 1606 O_____________ hurdat_epa EP011993 10.5000 -117.700 TS 45 998 0 5 298
1993162N10245 1993 32 EP MM ADRIAN 1993-06-14 21:00:00 TS 10.6350 -117.950 main 1617 1604 P_____________ EP011993 10.6350 -117.950 TS 47 997 0 6 301
1993162N10245 1993 32 EP MM ADRIAN 1993-06-15 00:00:00 TS 10.8000 -118.200 50 996 hurdat_epa main 1609 1602 O_____________ hurdat_epa EP011993 10.8000 -118.200 TS 50 996 0 6 307
1993162N10245 1993 32 EP MM ADRIAN 1993-06-15 03:00:00 TS 10.9775 -118.408 main 1602 1595 P_____________ EP011993 10.9775 -118.408 TS 52 995 0 6 315
1993162N10245 1993 32 EP MM ADRIAN 1993-06-15 06:00:00 TS 11.2000 -118.600 55 994 hurdat_epa main 1595 1580 O_____________ hurdat_epa EP011993 11.2000 -118.600 TS 55 994 0 6 322
1993162N10245 1993 32 EP MM ADRIAN 1993-06-15 09:00:00 TS 11.4850 -118.807 main 1580 1565 P_____________ EP011993 11.4850 -118.807 TS 60 991 0 7 327
1993162N10245 1993 32 EP MM ADRIAN 1993-06-15 12:00:00 TS 11.8000 -119.000 65 989 hurdat_epa main 1565 1545 O_____________ hurdat_epa EP011993 11.8000 -119.000 HU 65 989 1 7 331
1993162N10245 1993 32 EP MM ADRIAN 1993-06-15 15:00:00 TS 12.1000 -119.158 main 1551 1532 P_____________ EP011993 12.1000 -119.158 HU 67 985 1 7 334
1993162N10245 1993 32 EP MM ADRIAN 1993-06-15 18:00:00 TS 12.4000 -119.300 70 982 hurdat_epa main 1532 1513 O_____________ hurdat_epa EP011993 12.4000 -119.300 HU 70 982 1 7 335
1993162N10245 1993 32 EP MM ADRIAN 1993-06-15 21:00:00 TS 12.7000 -119.450 main 1520 1501 P_____________ EP011993 12.7000 -119.450 HU 72 980 1 7 334
1993162N10245 1993 32 EP MM ADRIAN 1993-06-16 00:00:00 TS 13.0000 -119.600 75 979 hurdat_epa main 1501 1483 O_____________ hurdat_epa EP011993 13.0000 -119.600 HU 75 979 1 7 333
1993162N10245 1993 32 EP MM ADRIAN 1993-06-16 03:00:00 TS 13.3075 -119.765 main 1491 1473 P_____________ EP011993 13.3075 -119.765 HU 75 979 1 7 334
1993162N10245 1993 32 EP MM ADRIAN 1993-06-16 06:00:00 TS 13.6000 -119.900 75 979 hurdat_epa main 1473 1457 O_____________ hurdat_epa EP011993 13.6000 -119.900 HU 75 979 1 6 339
1993162N10245 1993 32 EP MM ADRIAN 1993-06-16 09:00:00 TS 13.8650 -119.988 main 1457 1441 P_____________ EP011993 13.8650 -119.988 HU 72 979 1 5 349
1993162N10245 1993 32 EP MM ADRIAN 1993-06-16 12:00:00 TS 14.1000 -120.000 70 979 hurdat_epa main 1441 1418 O_____________ hurdat_epa EP011993 14.1000 -120.000 HU 70 979 1 5 9
1993162N10245 1993 32 EP MM ADRIAN 1993-06-16 15:00:00 TS 14.3225 -119.923 main 1418 1394 P_____________ EP011993 14.3225 -119.923 HU 67 979 1 4 26
1993162N10245 1993 32 EP MM ADRIAN 1993-06-16 18:00:00 TS 14.5000 -119.800 65 980 hurdat_epa main 1394 1379 O_____________ hurdat_epa EP011993 14.5000 -119.800 HU 65 980 1 4 35
1993162N10245 1993 32 EP MM ADRIAN 1993-06-16 21:00:00 TS 14.6300 -119.700 main 1379 1363 P_____________ EP011993 14.6300 -119.700 HU 60 982 0 3 44
1993162N10245 1993 32 EP MM ADRIAN 1993-06-17 00:00:00 TS 14.7000 -119.600 55 985 hurdat_epa main 1363 1356 O_____________ hurdat_epa EP011993 14.7000 -119.600 TS 55 985 0 2 64
1993162N10245 1993 32 EP MM ADRIAN 1993-06-17 03:00:00 TS 14.7225 -119.500 main 1356 1348 P_____________ EP011993 14.7225 -119.500 TS 50 990 0 2 90
1993162N10245 1993 32 EP MM ADRIAN 1993-06-17 06:00:00 TS 14.7000 -119.400 45 995 hurdat_epa main 1348 1340 O_____________ hurdat_epa EP011993 14.7000 -119.400 TS 45 995 0 2 107
1993162N10245 1993 32 EP MM ADRIAN 1993-06-17 09:00:00 TS 14.6650 -119.300 main 1340 1340 P_____________ EP011993 14.6650 -119.300 TS 40 999 0 2 117
1993162N10245 1993 32 EP MM ADRIAN 1993-06-17 12:00:00 TS 14.6000 -119.200 35 1004 hurdat_epa main 1340 1333 O_____________ hurdat_epa EP011993 14.6000 -119.200 TS 35 1004 0 2 129
1993162N10245 1993 32 EP MM ADRIAN 1993-06-17 15:00:00 TS 14.5150 -119.108 main 1341 1341 P_____________ EP011993 14.5150 -119.108 TS 32 1005 -1 3 136
1993162N10245 1993 32 EP MM ADRIAN 1993-06-17 18:00:00 TS 14.4000 -119.000 30 1007 hurdat_epa main 1342 1342 O_____________ hurdat_epa EP011993 14.4000 -119.000 TD 30 1007 -1 4 135
1993162N10245 1993 32 EP MM ADRIAN 1993-06-17 21:00:00 TS 14.2575 -118.842 main 1335 1335 P_____________ EP011993 14.2575 -118.842 TD 27 1008 -1 4 136
1993162N10245 1993 32 EP MM ADRIAN 1993-06-18 00:00:00 TS 14.1000 -118.700 25 1009 hurdat_epa main 1344 1344 O_____________ hurdat_epa EP011993 14.1000 -118.700 TD 25 1009 -1 4 148
1993162N10245 1993 32 EP MM ADRIAN 1993-06-18 03:00:00 TS 13.9275 -118.635 main 1354 1354 P_____________ EP011993 13.9275 -118.635 TD 25 1009 -1 3 163
1993162N10245 1993 32 EP MM ADRIAN 1993-06-18 06:00:00 TS 13.8000 -118.600 25 1010 hurdat_epa main 1363 1356 O_____________ hurdat_epa EP011993 13.8000 -118.600 TD 25 1010 -1 2 150
1993162N10245 1993 32 EP MM ADRIAN 1993-06-18 09:00:00 TS 13.7700 -118.543 main 1356 1356 P_____________ EP011993 13.7700 -118.543 TD 25 1010 -1 1 90
1993162N10245 1993 32 EP MM ADRIAN 1993-06-18 12:00:00 TS 13.8000 -118.500 25 1011 hurdat_epa main 1356 1356 O_____________ hurdat_epa EP011993 13.8000 -118.500 TD 25 1011 -1 1 25
1993162N10245 1993 32 EP MM ADRIAN 1993-06-18 15:00:00 TS 13.8500 -118.500 main 1347 1347 P_____________ EP011993 13.8500 -118.500 TD 25 1011 -1 1 0
1993162N10245 1993 32 EP MM ADRIAN 1993-06-18 18:00:00 TS 13.9000 -118.500 25 1011 hurdat_epa main 1347 1347 O_____________ hurdat_epa EP011993 13.9000 -118.500 TD 25 1011 -1 1 24
1993162N10245 1993 32 EP MM ADRIAN 1993-06-18 21:00:00 TS 13.9225 -118.458 main 1347 1340 P_____________ EP011993 13.9225 -118.458 TD 25 1011 -1 1 90
1993162N10245 1993 32 EP MM ADRIAN 1993-06-19 00:00:00 TS 13.9000 -118.400 25 1011 hurdat_epa main 1340 1340 O_____________ hurdat_epa EP011993 13.9000 -118.400 TD 25 1011 -1 2 135
1993162N10245 1993 32 EP MM ADRIAN 1993-06-19 03:00:00 TS 13.8150 -118.342 main 1342 1342 P_____________ EP011993 13.8150 -118.342 TD 25 1011 -1 2 153
1993162N10245 1993 32 EP MM ADRIAN 1993-06-19 06:00:00 TS 13.7000 -118.300 25 1011 hurdat_epa main 1350 1350 O_____________ hurdat_epa EP011993 13.7000 -118.300 TD 25 1011 -1 2 165
1993162N10245 1993 32 EP MM ADRIAN 1993-06-19 09:00:00 TS 13.5950 -118.290 main 1359 1359 P_____________ EP011993 13.5950 -118.290 TD 25 1011 -1 2 172
1993162N10245 1993 32 EP MM ADRIAN 1993-06-19 12:00:00 TS 13.5000 -118.300 25 1011 hurdat_epa main 1368 O_____________ hurdat_epa EP011993 13.5000 -118.300 TD 25 1011 -1 2 191

IBTrACS Databaseについて

本データベースは、米国NOAAが公開する1842年以降の世界の熱帯低気圧のベストトラックデータアーカイブInternational Best Track Archive for Climate Stewardship (IBTrACS)を、ウェブで閲覧しやすい形式に変換したものです。

最終更新日:2021-10-25